sensor_id;sensor_type;location;lat;lon;timestamp;temperature;humidity
12408;DHT22;6268;48.188;17.134;2023-01-23T00:00:16;2.40;99.90
12408;DHT22;6268;48.188;17.134;2023-01-23T00:02:46;2.40;99.90
12408;DHT22;6268;48.188;17.134;2023-01-23T00:05:14;2.40;99.90
12408;DHT22;6268;48.188;17.134;2023-01-23T00:07:43;2.40;99.90
12408;DHT22;6268;48.188;17.134;2023-01-23T00:10:14;2.40;99.90
12408;DHT22;6268;48.188;17.134;2023-01-23T00:12:44;2.40;99.90
12408;DHT22;6268;48.188;17.134;2023-01-23T00:15:15;2.40;99.90
12408;DHT22;6268;48.188;17.134;2023-01-23T00:17:44;2.30;99.90
12408;DHT22;6268;48.188;17.134;2023-01-23T00:20:14;2.30;99.90
12408;DHT22;6268;48.188;17.134;2023-01-23T00:22:43;2.30;99.90
12408;DHT22;6268;48.188;17.134;2023-01-23T00:25:14;2.30;99.90
12408;DHT22;6268;48.188;17.134;2023-01-23T00:27:43;2.30;99.90
12408;DHT22;6268;48.188;17.134;2023-01-23T00:30:12;2.30;99.90
12408;DHT22;6268;48.188;17.134;2023-01-23T00:32:42;2.30;99.90
12408;DHT22;6268;48.188;17.134;2023-01-23T00:35:11;2.40;99.90
12408;DHT22;6268;48.188;17.134;2023-01-23T00:37:40;2.30;99.90
12408;DHT22;6268;48.188;17.134;2023-01-23T00:40:09;2.30;99.90
12408;DHT22;6268;48.188;17.134;2023-01-23T00:42:40;2.40;99.90
12408;DHT22;6268;48.188;17.134;2023-01-23T00:45:10;2.40;99.90
12408;DHT22;6268;48.188;17.134;2023-01-23T00:47:39;2.40;99.90
12408;DHT22;6268;48.188;17.134;2023-01-23T00:50:09;2.40;99.90
12408;DHT22;6268;48.188;17.134;2023-01-23T00:52:38;2.50;99.90
12408;DHT22;6268;48.188;17.134;2023-01-23T00:55:08;2.50;99.90
12408;DHT22;6268;48.188;17.134;2023-01-23T00:57:38;2.40;99.90
12408;DHT22;6268;48.188;17.134;2023-01-23T01:00:09;2.40;99.90
12408;DHT22;6268;48.188;17.134;2023-01-23T01:02:38;2.40;99.90
12408;DHT22;6268;48.188;17.134;2023-01-23T01:05:08;2.40;99.90
12408;DHT22;6268;48.188;17.134;2023-01-23T01:07:37;2.40;99.90
12408;DHT22;6268;48.188;17.134;2023-01-23T01:10:06;2.30;99.90
12408;DHT22;6268;48.188;17.134;2023-01-23T01:12:35;2.30;99.90
12408;DHT22;6268;48.188;17.134;2023-01-23T01:15:09;2.30;99.90
12408;DHT22;6268;48.188;17.134;2023-01-23T01:17:38;2.30;99.90
12408;DHT22;6268;48.188;17.134;2023-01-23T01:20:09;2.30;99.90
12408;DHT22;6268;48.188;17.134;2023-01-23T01:22:38;2.30;99.90
12408;DHT22;6268;48.188;17.134;2023-01-23T01:25:08;2.40;99.90
12408;DHT22;6268;48.188;17.134;2023-01-23T01:27:37;2.30;99.90
12408;DHT22;6268;48.188;17.134;2023-01-23T01:30:08;2.30;99.90
12408;DHT22;6268;48.188;17.134;2023-01-23T01:32:38;2.40;99.90
12408;DHT22;6268;48.188;17.134;2023-01-23T01:35:09;2.40;99.90
12408;DHT22;6268;48.188;17.134;2023-01-23T01:37:40;2.40;99.90
12408;DHT22;6268;48.188;17.134;2023-01-23T01:40:12;2.50;99.90
12408;DHT22;6268;48.188;17.134;2023-01-23T01:42:43;2.50;99.90
12408;DHT22;6268;48.188;17.134;2023-01-23T01:48:46;2.60;99.90
12408;DHT22;6268;48.188;17.134;2023-01-23T01:51:22;2.60;99.90
12408;DHT22;6268;48.188;17.134;2023-01-23T01:53:59;2.60;99.90
12408;DHT22;6268;48.188;17.134;2023-01-23T01:56:36;2.70;99.90
12408;DHT22;6268;48.188;17.134;2023-01-23T01:59:09;2.70;99.90
12408;DHT22;6268;48.188;17.134;2023-01-23T02:01:39;2.70;99.90
12408;DHT22;6268;48.188;17.134;2023-01-23T02:04:13;2.70;99.90
12408;DHT22;6268;48.188;17.134;2023-01-23T02:06:43;2.60;99.90
12408;DHT22;6268;48.188;17.134;2023-01-23T02:09:16;2.60;99.90
12408;DHT22;6268;48.188;17.134;2023-01-23T02:11:50;2.60;99.90
12408;DHT22;6268;48.188;17.134;2023-01-23T02:14:20;2.60;99.90
12408;DHT22;6268;48.188;17.134;2023-01-23T02:16:52;2.60;99.90
12408;DHT22;6268;48.188;17.134;2023-01-23T02:19:44;2.70;99.90
12408;DHT22;6268;48.188;17.134;2023-01-23T02:22:29;2.70;99.90
12408;DHT22;6268;48.188;17.134;2023-01-23T02:25:13;2.70;99.90
12408;DHT22;6268;48.188;17.134;2023-01-23T02:27:51;2.70;99.90
12408;DHT22;6268;48.188;17.134;2023-01-23T02:30:20;2.70;99.90
12408;DHT22;6268;48.188;17.134;2023-01-23T02:32:49;2.70;99.90
12408;DHT22;6268;48.188;17.134;2023-01-23T02:35:21;2.70;99.90
12408;DHT22;6268;48.188;17.134;2023-01-23T02:37:56;2.80;99.90
12408;DHT22;6268;48.188;17.134;2023-01-23T02:40:32;2.80;99.90
12408;DHT22;6268;48.188;17.134;2023-01-23T02:43:06;2.80;99.90
12408;DHT22;6268;48.188;17.134;2023-01-23T02:45:38;2.90;99.90
12408;DHT22;6268;48.188;17.134;2023-01-23T02:48:07;2.90;99.90
12408;DHT22;6268;48.188;17.134;2023-01-23T02:50:36;3.00;99.90
12408;DHT22;6268;48.188;17.134;2023-01-23T02:53:05;3.10;99.90
12408;DHT22;6268;48.188;17.134;2023-01-23T02:55:34;3.20;99.90
12408;DHT22;6268;48.188;17.134;2023-01-23T02:58:06;3.30;99.90
12408;DHT22;6268;48.188;17.134;2023-01-23T03:00:52;3.40;99.90
12408;DHT22;6268;48.188;17.134;2023-01-23T03:03:21;3.40;99.90
12408;DHT22;6268;48.188;17.134;2023-01-23T03:05:50;3.40;99.90
12408;DHT22;6268;48.188;17.134;2023-01-23T03:08:20;3.40;99.90
12408;DHT22;6268;48.188;17.134;2023-01-23T03:10:49;3.40;99.90
12408;DHT22;6268;48.188;17.134;2023-01-23T03:13:19;3.30;99.90
12408;DHT22;6268;48.188;17.134;2023-01-23T03:15:49;3.30;99.90
12408;DHT22;6268;48.188;17.134;2023-01-23T03:18:19;3.30;99.90
12408;DHT22;6268;48.188;17.134;2023-01-23T03:20:48;3.20;99.90
12408;DHT22;6268;48.188;17.134;2023-01-23T03:23:17;3.20;99.90
12408;DHT22;6268;48.188;17.134;2023-01-23T03:25:46;3.20;99.90
12408;DHT22;6268;48.188;17.134;2023-01-23T03:28:15;3.20;99.90
12408;DHT22;6268;48.188;17.134;2023-01-23T03:30:59;3.20;99.90
12408;DHT22;6268;48.188;17.134;2023-01-23T03:33:28;3.20;99.90
12408;DHT22;6268;48.188;17.134;2023-01-23T03:35:57;3.10;99.90
12408;DHT22;6268;48.188;17.134;2023-01-23T03:38:27;3.10;99.90
12408;DHT22;6268;48.188;17.134;2023-01-23T03:40:55;3.10;99.90
12408;DHT22;6268;48.188;17.134;2023-01-23T03:43:42;3.10;99.90
12408;DHT22;6268;48.188;17.134;2023-01-23T03:46:12;3.10;99.90
12408;DHT22;6268;48.188;17.134;2023-01-23T03:48:41;3.10;99.90
12408;DHT22;6268;48.188;17.134;2023-01-23T03:51:10;3.10;99.90
12408;DHT22;6268;48.188;17.134;2023-01-23T03:53:39;3.00;99.90
12408;DHT22;6268;48.188;17.134;2023-01-23T03:56:08;2.90;99.90
12408;DHT22;6268;48.188;17.134;2023-01-23T03:58:37;2.90;99.90
12408;DHT22;6268;48.188;17.134;2023-01-23T04:01:06;2.90;99.90
12408;DHT22;6268;48.188;17.134;2023-01-23T04:03:38;2.90;99.90
12408;DHT22;6268;48.188;17.134;2023-01-23T04:06:07;2.90;99.90
12408;DHT22;6268;48.188;17.134;2023-01-23T04:08:36;2.80;99.90
12408;DHT22;6268;48.188;17.134;2023-01-23T04:11:06;2.80;99.90
12408;DHT22;6268;48.188;17.134;2023-01-23T04:13:36;2.70;99.90
12408;DHT22;6268;48.188;17.134;2023-01-23T04:16:06;2.70;99.90
12408;DHT22;6268;48.188;17.134;2023-01-23T04:18:35;2.70;99.90
12408;DHT22;6268;48.188;17.134;2023-01-23T04:21:05;2.60;99.90
12408;DHT22;6268;48.188;17.134;2023-01-23T04:23:35;2.60;99.90
12408;DHT22;6268;48.188;17.134;2023-01-23T04:26:04;2.60;99.90
12408;DHT22;6268;48.188;17.134;2023-01-23T04:28:32;2.60;99.90
12408;DHT22;6268;48.188;17.134;2023-01-23T04:31:01;2.60;99.90
12408;DHT22;6268;48.188;17.134;2023-01-23T04:33:30;2.50;99.90
12408;DHT22;6268;48.188;17.134;2023-01-23T04:36:01;2.50;99.90
12408;DHT22;6268;48.188;17.134;2023-01-23T04:38:33;2.40;99.90
12408;DHT22;6268;48.188;17.134;2023-01-23T04:41:03;2.40;99.90
12408;DHT22;6268;48.188;17.134;2023-01-23T04:43:32;2.30;99.90
12408;DHT22;6268;48.188;17.134;2023-01-23T04:46:01;2.30;99.90
12408;DHT22;6268;48.188;17.134;2023-01-23T04:48:30;2.30;99.90
12408;DHT22;6268;48.188;17.134;2023-01-23T04:50:59;2.20;99.90
12408;DHT22;6268;48.188;17.134;2023-01-23T04:53:28;2.20;99.90
12408;DHT22;6268;48.188;17.134;2023-01-23T04:55:58;2.20;99.90
12408;DHT22;6268;48.188;17.134;2023-01-23T04:58:27;2.20;99.90
12408;DHT22;6268;48.188;17.134;2023-01-23T05:01:01;2.20;99.90
12408;DHT22;6268;48.188;17.134;2023-01-23T05:03:30;2.20;99.90
12408;DHT22;6268;48.188;17.134;2023-01-23T05:06:00;2.20;99.90
12408;DHT22;6268;48.188;17.134;2023-01-23T05:08:29;2.20;99.90
12408;DHT22;6268;48.188;17.134;2023-01-23T05:11:00;2.20;99.90
12408;DHT22;6268;48.188;17.134;2023-01-23T05:13:28;2.20;99.90
12408;DHT22;6268;48.188;17.134;2023-01-23T05:15:57;2.20;99.90
12408;DHT22;6268;48.188;17.134;2023-01-23T05:18:26;2.20;99.90
12408;DHT22;6268;48.188;17.134;2023-01-23T05:20:55;2.10;99.90
12408;DHT22;6268;48.188;17.134;2023-01-23T05:23:24;2.10;99.90
12408;DHT22;6268;48.188;17.134;2023-01-23T05:25:53;2.10;99.90
12408;DHT22;6268;48.188;17.134;2023-01-23T05:28:23;2.10;99.90
12408;DHT22;6268;48.188;17.134;2023-01-23T05:30:51;2.10;99.90
12408;DHT22;6268;48.188;17.134;2023-01-23T05:33:20;2.10;99.90
12408;DHT22;6268;48.188;17.134;2023-01-23T05:35:49;2.10;99.90
12408;DHT22;6268;48.188;17.134;2023-01-23T05:38:18;2.10;99.90
12408;DHT22;6268;48.188;17.134;2023-01-23T05:40:47;2.10;99.90
12408;DHT22;6268;48.188;17.134;2023-01-23T05:43:17;2.10;99.90
12408;DHT22;6268;48.188;17.134;2023-01-23T05:45:49;2.10;99.90
12408;DHT22;6268;48.188;17.134;2023-01-23T05:48:19;2.20;99.90
12408;DHT22;6268;48.188;17.134;2023-01-23T05:50:47;2.30;99.90
12408;DHT22;6268;48.188;17.134;2023-01-23T05:53:16;2.30;99.90
12408;DHT22;6268;48.188;17.134;2023-01-23T05:55:47;2.40;99.90
12408;DHT22;6268;48.188;17.134;2023-01-23T05:58:15;2.50;99.90
12408;DHT22;6268;48.188;17.134;2023-01-23T06:00:44;2.50;99.90
12408;DHT22;6268;48.188;17.134;2023-01-23T06:03:14;2.60;99.90
12408;DHT22;6268;48.188;17.134;2023-01-23T06:05:43;2.70;99.90
12408;DHT22;6268;48.188;17.134;2023-01-23T06:08:12;2.70;99.90
12408;DHT22;6268;48.188;17.134;2023-01-23T06:10:41;2.70;99.90
12408;DHT22;6268;48.188;17.134;2023-01-23T06:13:10;2.70;99.90
12408;DHT22;6268;48.188;17.134;2023-01-23T06:15:39;2.70;99.90
12408;DHT22;6268;48.188;17.134;2023-01-23T06:18:08;2.80;99.90
12408;DHT22;6268;48.188;17.134;2023-01-23T06:20:38;2.80;99.90
12408;DHT22;6268;48.188;17.134;2023-01-23T06:23:07;2.80;99.90
12408;DHT22;6268;48.188;17.134;2023-01-23T06:25:36;2.80;99.90
12408;DHT22;6268;48.188;17.134;2023-01-23T06:28:04;2.80;99.90
12408;DHT22;6268;48.188;17.134;2023-01-23T06:30:34;2.80;99.90
12408;DHT22;6268;48.188;17.134;2023-01-23T06:33:04;2.80;99.90
12408;DHT22;6268;48.188;17.134;2023-01-23T06:35:33;2.90;99.90
12408;DHT22;6268;48.188;17.134;2023-01-23T06:38:03;2.90;99.90
12408;DHT22;6268;48.188;17.134;2023-01-23T06:40:32;2.90;99.90
12408;DHT22;6268;48.188;17.134;2023-01-23T06:43:00;2.90;99.90
12408;DHT22;6268;48.188;17.134;2023-01-23T06:45:29;2.90;99.90
12408;DHT22;6268;48.188;17.134;2023-01-23T06:47:58;2.80;99.90
12408;DHT22;6268;48.188;17.134;2023-01-23T06:50:27;2.90;99.90
12408;DHT22;6268;48.188;17.134;2023-01-23T06:52:56;2.90;99.90
12408;DHT22;6268;48.188;17.134;2023-01-23T06:55:26;2.90;99.90
12408;DHT22;6268;48.188;17.134;2023-01-23T06:57:55;3.00;99.90
12408;DHT22;6268;48.188;17.134;2023-01-23T07:00:25;3.00;99.90
12408;DHT22;6268;48.188;17.134;2023-01-23T07:02:54;3.00;99.90
12408;DHT22;6268;48.188;17.134;2023-01-23T07:05:25;3.00;99.90
12408;DHT22;6268;48.188;17.134;2023-01-23T07:07:54;3.00;99.90
12408;DHT22;6268;48.188;17.134;2023-01-23T07:10:23;3.00;99.90
12408;DHT22;6268;48.188;17.134;2023-01-23T07:12:54;3.00;99.90
12408;DHT22;6268;48.188;17.134;2023-01-23T07:15:24;3.00;99.90
12408;DHT22;6268;48.188;17.134;2023-01-23T07:17:53;3.00;99.90
12408;DHT22;6268;48.188;17.134;2023-01-23T07:20:22;3.00;99.90
12408;DHT22;6268;48.188;17.134;2023-01-23T07:22:54;3.00;99.90
12408;DHT22;6268;48.188;17.134;2023-01-23T07:25:24;3.00;99.90
12408;DHT22;6268;48.188;17.134;2023-01-23T07:27:54;3.00;99.90
12408;DHT22;6268;48.188;17.134;2023-01-23T07:30:23;3.00;99.90
12408;DHT22;6268;48.188;17.134;2023-01-23T07:32:53;2.90;99.90
12408;DHT22;6268;48.188;17.134;2023-01-23T07:35:22;3.00;99.90
12408;DHT22;6268;48.188;17.134;2023-01-23T07:37:52;2.90;99.90
12408;DHT22;6268;48.188;17.134;2023-01-23T07:40:21;2.90;99.90
12408;DHT22;6268;48.188;17.134;2023-01-23T07:42:50;2.90;99.90
12408;DHT22;6268;48.188;17.134;2023-01-23T07:45:20;2.90;99.90
12408;DHT22;6268;48.188;17.134;2023-01-23T07:47:49;2.90;99.90
12408;DHT22;6268;48.188;17.134;2023-01-23T07:50:18;3.00;99.90
12408;DHT22;6268;48.188;17.134;2023-01-23T07:52:47;3.00;99.90
12408;DHT22;6268;48.188;17.134;2023-01-23T07:55:16;2.90;99.90
12408;DHT22;6268;48.188;17.134;2023-01-23T07:57:45;2.80;99.90
12408;DHT22;6268;48.188;17.134;2023-01-23T08:00:15;2.90;99.90
12408;DHT22;6268;48.188;17.134;2023-01-23T08:02:47;2.90;99.90
12408;DHT22;6268;48.188;17.134;2023-01-23T08:05:16;2.80;99.90
12408;DHT22;6268;48.188;17.134;2023-01-23T08:07:45;2.90;99.90
12408;DHT22;6268;48.188;17.134;2023-01-23T08:10:13;2.80;99.90
12408;DHT22;6268;48.188;17.134;2023-01-23T08:12:43;2.90;99.90
12408;DHT22;6268;48.188;17.134;2023-01-23T08:15:12;2.90;99.90
12408;DHT22;6268;48.188;17.134;2023-01-23T08:17:41;2.80;99.90
12408;DHT22;6268;48.188;17.134;2023-01-23T08:20:11;2.80;99.90
12408;DHT22;6268;48.188;17.134;2023-01-23T08:22:40;2.90;99.90
12408;DHT22;6268;48.188;17.134;2023-01-23T08:25:11;2.90;99.90
12408;DHT22;6268;48.188;17.134;2023-01-23T08:27:40;3.00;99.90
12408;DHT22;6268;48.188;17.134;2023-01-23T08:30:10;2.90;99.90
12408;DHT22;6268;48.188;17.134;2023-01-23T08:32:39;2.90;99.90
12408;DHT22;6268;48.188;17.134;2023-01-23T08:35:09;3.00;99.90
12408;DHT22;6268;48.188;17.134;2023-01-23T08:37:39;3.00;99.90
12408;DHT22;6268;48.188;17.134;2023-01-23T08:40:09;3.10;99.90
12408;DHT22;6268;48.188;17.134;2023-01-23T08:42:39;3.10;99.90
12408;DHT22;6268;48.188;17.134;2023-01-23T08:45:08;3.10;99.90
12408;DHT22;6268;48.188;17.134;2023-01-23T08:47:38;3.20;99.90
12408;DHT22;6268;48.188;17.134;2023-01-23T08:50:08;3.20;99.90
12408;DHT22;6268;48.188;17.134;2023-01-23T08:52:39;3.20;99.90
12408;DHT22;6268;48.188;17.134;2023-01-23T08:55:09;3.30;99.90
12408;DHT22;6268;48.188;17.134;2023-01-23T08:57:39;3.40;99.90
12408;DHT22;6268;48.188;17.134;2023-01-23T09:00:09;3.40;99.90
12408;DHT22;6268;48.188;17.134;2023-01-23T09:02:39;3.40;99.90
12408;DHT22;6268;48.188;17.134;2023-01-23T09:05:08;3.40;99.90
12408;DHT22;6268;48.188;17.134;2023-01-23T09:07:39;3.50;99.90
12408;DHT22;6268;48.188;17.134;2023-01-23T09:10:09;3.50;99.90
12408;DHT22;6268;48.188;17.134;2023-01-23T09:12:38;3.50;99.90
12408;DHT22;6268;48.188;17.134;2023-01-23T09:15:09;3.60;99.90
12408;DHT22;6268;48.188;17.134;2023-01-23T09:17:38;3.60;99.90
12408;DHT22;6268;48.188;17.134;2023-01-23T09:20:08;3.60;99.90
12408;DHT22;6268;48.188;17.134;2023-01-23T09:22:39;3.70;99.90
12408;DHT22;6268;48.188;17.134;2023-01-23T09:25:09;3.70;99.90
12408;DHT22;6268;48.188;17.134;2023-01-23T09:27:38;3.80;99.90
12408;DHT22;6268;48.188;17.134;2023-01-23T09:30:08;3.90;99.90
12408;DHT22;6268;48.188;17.134;2023-01-23T09:32:38;3.90;99.90
12408;DHT22;6268;48.188;17.134;2023-01-23T09:35:07;3.90;99.90
12408;DHT22;6268;48.188;17.134;2023-01-23T09:37:39;3.90;99.90
12408;DHT22;6268;48.188;17.134;2023-01-23T09:40:27;3.90;99.90
12408;DHT22;6268;48.188;17.134;2023-01-23T09:43:02;3.80;99.90
12408;DHT22;6268;48.188;17.134;2023-01-23T09:45:40;3.90;99.90
12408;DHT22;6268;48.188;17.134;2023-01-23T09:48:20;4.00;99.90
12408;DHT22;6268;48.188;17.134;2023-01-23T09:50:58;4.00;99.90
12408;DHT22;6268;48.188;17.134;2023-01-23T09:53:35;4.10;99.90
12408;DHT22;6268;48.188;17.134;2023-01-23T09:56:13;4.20;99.90
12408;DHT22;6268;48.188;17.134;2023-01-23T09:58:57;4.20;99.90
12408;DHT22;6268;48.188;17.134;2023-01-23T10:01:30;4.20;99.90
12408;DHT22;6268;48.188;17.134;2023-01-23T10:04:02;4.30;99.90
12408;DHT22;6268;48.188;17.134;2023-01-23T10:09:45;4.20;99.90
12408;DHT22;6268;48.188;17.134;2023-01-23T10:12:36;4.10;99.90
12408;DHT22;6268;48.188;17.134;2023-01-23T10:15:27;4.20;99.90
12408;DHT22;6268;48.188;17.134;2023-01-23T10:18:14;4.10;99.90
12408;DHT22;6268;48.188;17.134;2023-01-23T10:21:02;4.20;99.90
12408;DHT22;6268;48.188;17.134;2023-01-23T10:23:47;4.30;99.90
12408;DHT22;6268;48.188;17.134;2023-01-23T10:26:30;4.30;99.90
12408;DHT22;6268;48.188;17.134;2023-01-23T10:29:09;4.30;99.90
12408;DHT22;6268;48.188;17.134;2023-01-23T10:31:44;4.30;99.90
12408;DHT22;6268;48.188;17.134;2023-01-23T10:34:19;4.40;99.90
12408;DHT22;6268;48.188;17.134;2023-01-23T10:37:02;4.30;99.90
12408;DHT22;6268;48.188;17.134;2023-01-23T10:39:44;4.30;99.90
12408;DHT22;6268;48.188;17.134;2023-01-23T10:42:21;4.30;99.90
12408;DHT22;6268;48.188;17.134;2023-01-23T10:44:50;4.30;99.90
12408;DHT22;6268;48.188;17.134;2023-01-23T10:47:24;4.30;99.90
12408;DHT22;6268;48.188;17.134;2023-01-23T10:50:00;4.40;99.90
12408;DHT22;6268;48.188;17.134;2023-01-23T10:52:33;4.40;99.90
12408;DHT22;6268;48.188;17.134;2023-01-23T10:55:07;4.40;99.90
12408;DHT22;6268;48.188;17.134;2023-01-23T10:57:58;4.40;99.90
12408;DHT22;6268;48.188;17.134;2023-01-23T11:00:34;4.50;99.90
12408;DHT22;6268;48.188;17.134;2023-01-23T11:03:26;4.60;99.90
12408;DHT22;6268;48.188;17.134;2023-01-23T11:06:02;4.70;99.90
12408;DHT22;6268;48.188;17.134;2023-01-23T11:08:34;4.80;99.90
12408;DHT22;6268;48.188;17.134;2023-01-23T11:11:21;4.90;99.90
12408;DHT22;6268;48.188;17.134;2023-01-23T11:14:05;4.90;99.90
12408;DHT22;6268;48.188;17.134;2023-01-23T11:16:35;5.00;99.90
12408;DHT22;6268;48.188;17.134;2023-01-23T11:19:21;5.10;99.90
12408;DHT22;6268;48.188;17.134;2023-01-23T11:21:53;5.10;99.90
12408;DHT22;6268;48.188;17.134;2023-01-23T11:24:32;5.00;99.90
12408;DHT22;6268;48.188;17.134;2023-01-23T11:27:17;5.00;99.90
12408;DHT22;6268;48.188;17.134;2023-01-23T11:32:57;5.00;99.90
12408;DHT22;6268;48.188;17.134;2023-01-23T11:35:49;5.10;99.90
12408;DHT22;6268;48.188;17.134;2023-01-23T11:38:26;4.90;99.90
12408;DHT22;6268;48.188;17.134;2023-01-23T11:41:00;4.80;99.90
12408;DHT22;6268;48.188;17.134;2023-01-23T11:43:31;4.80;99.90
12408;DHT22;6268;48.188;17.134;2023-01-23T11:46:20;4.80;99.90
12408;DHT22;6268;48.188;17.134;2023-01-23T11:49:28;4.60;99.90
12408;DHT22;6268;48.188;17.134;2023-01-23T11:52:22;4.70;99.90
12408;DHT22;6268;48.188;17.134;2023-01-23T11:55:12;4.70;99.90
12408;DHT22;6268;48.188;17.134;2023-01-23T11:58:05;4.70;99.90
12408;DHT22;6268;48.188;17.134;2023-01-23T12:00:43;4.70;99.90
12408;DHT22;6268;48.188;17.134;2023-01-23T12:07:00;4.70;99.90
12408;DHT22;6268;48.188;17.134;2023-01-23T12:09:47;4.70;99.90
12408;DHT22;6268;48.188;17.134;2023-01-23T12:12:34;4.70;99.90
12408;DHT22;6268;48.188;17.134;2023-01-23T12:15:28;4.70;99.90
12408;DHT22;6268;48.188;17.134;2023-01-23T12:18:14;4.80;99.90
12408;DHT22;6268;48.188;17.134;2023-01-23T12:20:59;4.80;99.90
12408;DHT22;6268;48.188;17.134;2023-01-23T12:23:48;4.80;99.90
12408;DHT22;6268;48.188;17.134;2023-01-23T12:26:26;4.80;99.90
12408;DHT22;6268;48.188;17.134;2023-01-23T12:32:29;4.90;99.90
12408;DHT22;6268;48.188;17.134;2023-01-23T12:35:24;4.90;99.90
12408;DHT22;6268;48.188;17.134;2023-01-23T12:38:09;4.90;99.90
12408;DHT22;6268;48.188;17.134;2023-01-23T12:40:49;4.90;99.90
12408;DHT22;6268;48.188;17.134;2023-01-23T12:43:33;4.90;99.90
12408;DHT22;6268;48.188;17.134;2023-01-23T12:46:09;4.90;99.90
12408;DHT22;6268;48.188;17.134;2023-01-23T12:48:45;4.90;99.90
12408;DHT22;6268;48.188;17.134;2023-01-23T12:51:23;5.00;99.90
12408;DHT22;6268;48.188;17.134;2023-01-23T12:53:59;5.10;99.90
12408;DHT22;6268;48.188;17.134;2023-01-23T12:56:35;5.20;99.90
12408;DHT22;6268;48.188;17.134;2023-01-23T12:59:14;5.30;99.90
12408;DHT22;6268;48.188;17.134;2023-01-23T13:01:57;5.30;99.90
12408;DHT22;6268;48.188;17.134;2023-01-23T13:04:42;5.40;99.90
12408;DHT22;6268;48.188;17.134;2023-01-23T13:07:42;5.40;99.90
12408;DHT22;6268;48.188;17.134;2023-01-23T13:10:29;5.50;99.90
12408;DHT22;6268;48.188;17.134;2023-01-23T13:13:27;5.50;99.90
12408;DHT22;6268;48.188;17.134;2023-01-23T13:16:09;5.50;99.90
12408;DHT22;6268;48.188;17.134;2023-01-23T13:18:41;5.50;99.90
12408;DHT22;6268;48.188;17.134;2023-01-23T13:21:37;5.50;99.90
12408;DHT22;6268;48.188;17.134;2023-01-23T13:24:37;5.50;99.90
12408;DHT22;6268;48.188;17.134;2023-01-23T13:27:44;5.60;99.90
12408;DHT22;6268;48.188;17.134;2023-01-23T13:30:41;5.60;99.90
12408;DHT22;6268;48.188;17.134;2023-01-23T13:36:29;5.60;99.90
12408;DHT22;6268;48.188;17.134;2023-01-23T13:39:21;5.60;99.90
12408;DHT22;6268;48.188;17.134;2023-01-23T13:45:30;5.50;99.90
12408;DHT22;6268;48.188;17.134;2023-01-23T13:48:30;5.30;99.90
12408;DHT22;6268;48.188;17.134;2023-01-23T13:51:50;5.40;99.90
12408;DHT22;6268;48.188;17.134;2023-01-23T13:54:33;5.40;99.90
12408;DHT22;6268;48.188;17.134;2023-01-23T13:57:35;5.40;99.90
12408;DHT22;6268;48.188;17.134;2023-01-23T14:00:22;5.50;99.90
12408;DHT22;6268;48.188;17.134;2023-01-23T14:03:21;5.50;99.90
12408;DHT22;6268;48.188;17.134;2023-01-23T14:06:31;5.50;99.90
12408;DHT22;6268;48.188;17.134;2023-01-23T14:09:22;5.40;99.90
12408;DHT22;6268;48.188;17.134;2023-01-23T14:14:48;5.30;99.90
12408;DHT22;6268;48.188;17.134;2023-01-23T14:17:48;5.00;99.90
12408;DHT22;6268;48.188;17.134;2023-01-23T14:20:32;4.90;99.90
12408;DHT22;6268;48.188;17.134;2023-01-23T14:23:16;4.90;99.90
12408;DHT22;6268;48.188;17.134;2023-01-23T14:25:48;4.90;99.90
12408;DHT22;6268;48.188;17.134;2023-01-23T14:28:17;4.90;99.90
12408;DHT22;6268;48.188;17.134;2023-01-23T14:30:59;4.90;99.90
12408;DHT22;6268;48.188;17.134;2023-01-23T14:33:39;4.90;99.90
12408;DHT22;6268;48.188;17.134;2023-01-23T14:36:14;4.90;99.90
12408;DHT22;6268;48.188;17.134;2023-01-23T14:38:45;4.80;99.90
12408;DHT22;6268;48.188;17.134;2023-01-23T14:41:15;4.80;99.90
12408;DHT22;6268;48.188;17.134;2023-01-23T14:43:52;4.80;99.90
12408;DHT22;6268;48.188;17.134;2023-01-23T14:46:33;4.80;99.90
12408;DHT22;6268;48.188;17.134;2023-01-23T14:49:06;4.80;99.90
12408;DHT22;6268;48.188;17.134;2023-01-23T14:51:36;4.70;99.90
12408;DHT22;6268;48.188;17.134;2023-01-23T14:54:15;4.70;99.90
12408;DHT22;6268;48.188;17.134;2023-01-23T14:56:49;4.60;99.90
12408;DHT22;6268;48.188;17.134;2023-01-23T14:59:24;4.60;99.90
12408;DHT22;6268;48.188;17.134;2023-01-23T15:01:59;4.60;99.90
12408;DHT22;6268;48.188;17.134;2023-01-23T15:04:42;4.50;99.90
12408;DHT22;6268;48.188;17.134;2023-01-23T15:07:14;4.50;99.90
12408;DHT22;6268;48.188;17.134;2023-01-23T15:09:45;4.40;99.90
12408;DHT22;6268;48.188;17.134;2023-01-23T15:12:15;4.30;99.90
12408;DHT22;6268;48.188;17.134;2023-01-23T15:14:45;4.30;99.90
12408;DHT22;6268;48.188;17.134;2023-01-23T15:17:23;4.20;99.90
12408;DHT22;6268;48.188;17.134;2023-01-23T15:19:53;4.20;99.90
12408;DHT22;6268;48.188;17.134;2023-01-23T15:22:26;4.20;99.90
12408;DHT22;6268;48.188;17.134;2023-01-23T15:24:56;4.10;99.90
12408;DHT22;6268;48.188;17.134;2023-01-23T15:27:29;4.10;99.90
12408;DHT22;6268;48.188;17.134;2023-01-23T15:30:28;4.10;99.90
12408;DHT22;6268;48.188;17.134;2023-01-23T15:33:23;4.10;99.90
12408;DHT22;6268;48.188;17.134;2023-01-23T15:36:01;4.10;99.90
12408;DHT22;6268;48.188;17.134;2023-01-23T15:38:33;4.00;99.90
12408;DHT22;6268;48.188;17.134;2023-01-23T15:41:07;3.90;99.90
12408;DHT22;6268;48.188;17.134;2023-01-23T15:43:37;3.90;99.90
12408;DHT22;6268;48.188;17.134;2023-01-23T15:46:08;3.90;99.90
12408;DHT22;6268;48.188;17.134;2023-01-23T15:48:39;3.90;99.90
12408;DHT22;6268;48.188;17.134;2023-01-23T15:51:10;3.90;99.90
12408;DHT22;6268;48.188;17.134;2023-01-23T15:53:40;3.80;99.90
12408;DHT22;6268;48.188;17.134;2023-01-23T15:56:20;3.90;99.90
12408;DHT22;6268;48.188;17.134;2023-01-23T15:58:54;3.80;99.90
12408;DHT22;6268;48.188;17.134;2023-01-23T16:01:22;3.80;99.90
12408;DHT22;6268;48.188;17.134;2023-01-23T16:03:52;3.80;99.90
12408;DHT22;6268;48.188;17.134;2023-01-23T16:06:23;3.80;99.90
12408;DHT22;6268;48.188;17.134;2023-01-23T16:08:52;3.70;99.90
12408;DHT22;6268;48.188;17.134;2023-01-23T16:11:33;3.70;99.90
12408;DHT22;6268;48.188;17.134;2023-01-23T16:14:04;3.70;99.90
12408;DHT22;6268;48.188;17.134;2023-01-23T16:16:33;3.70;99.90
12408;DHT22;6268;48.188;17.134;2023-01-23T16:19:03;3.70;99.90
12408;DHT22;6268;48.188;17.134;2023-01-23T16:21:32;3.70;99.90
12408;DHT22;6268;48.188;17.134;2023-01-23T16:24:01;3.70;99.90
12408;DHT22;6268;48.188;17.134;2023-01-23T16:26:33;3.70;99.90
12408;DHT22;6268;48.188;17.134;2023-01-23T16:29:02;3.80;99.90
12408;DHT22;6268;48.188;17.134;2023-01-23T16:31:39;3.70;99.90
12408;DHT22;6268;48.188;17.134;2023-01-23T16:34:10;3.70;99.90
12408;DHT22;6268;48.188;17.134;2023-01-23T16:36:39;3.60;99.90
12408;DHT22;6268;48.188;17.134;2023-01-23T16:39:15;3.60;99.90
12408;DHT22;6268;48.188;17.134;2023-01-23T16:41:47;3.60;99.90
12408;DHT22;6268;48.188;17.134;2023-01-23T16:44:17;3.60;99.90
12408;DHT22;6268;48.188;17.134;2023-01-23T16:46:48;3.60;99.90
12408;DHT22;6268;48.188;17.134;2023-01-23T16:49:19;3.50;99.90
12408;DHT22;6268;48.188;17.134;2023-01-23T16:51:54;3.50;99.90
12408;DHT22;6268;48.188;17.134;2023-01-23T16:54:25;3.50;99.90